Time;durP1;ratioP1;P1;durP2;ratioP2;P2;SDS_P1;SDS_P2;PMS_P1;PMS_P2;Temp;Humidity;BMP_temperature;BMP_pressure;BME280_temperature;BME280_humidity;BME280_pressure;Samples;Min_cycle;Max_cycle;Signal;HPM_P1;HPM_P2
2022/11/16 15:07:56;;;;;;;11.75;2.85;;;11.10;99.90;;;;;;4946403;29;20055;-90
2022/11/16 15:10:25;;;;;;;13.13;3.03;;;10.90;99.90;;;;;;4934712;29;20040;-87
2022/11/16 15:12:52;;;;;;;13.10;3.08;;;10.90;99.90;;;;;;4949878;28;20059;-88
2022/11/16 15:15:23;;;;;;;13.35;3.40;;;10.80;99.90;;;;;;4965030;28;20403;-88
2022/11/16 15:18:06;;;;;;;14.00;3.40;;;10.80;99.90;;;;;;4949711;29;20062;-88
2022/11/16 15:20:34;;;;;;;12.63;3.40;;;10.70;99.90;;;;;;4931571;29;20069;-88
2022/11/16 15:23:01;;;;;;;11.20;3.22;;;10.70;99.90;;;;;;4957239;28;20444;-88
2022/11/16 15:25:27;;;;;;;11.45;3.20;;;10.60;99.90;;;;;;4931290;29;20043;-88
2022/11/16 15:27:53;;;;;;;11.20;3.42;;;10.50;99.90;;;;;;4956037;28;20230;-88
2022/11/16 15:30:25;;;;;;;16.55;3.88;;;10.50;99.90;;;;;;4934043;29;20079;-90
2022/11/16 15:32:51;;;;;;;13.48;4.47;;;10.40;99.90;;;;;;4950124;29;20039;-87
2022/11/16 15:35:26;;;;;;;12.93;4.60;;;10.40;99.90;;;;;;4949379;29;20415;-87
2022/11/16 15:38:02;;;;;;;15.52;4.80;;;10.30;99.90;;;;;;4955082;28;20035;-86
2022/11/16 15:40:29;;;;;;;16.60;5.38;;;10.20;99.90;;;;;;4945225;29;20074;-87
2022/11/16 15:42:56;;;;;;;14.40;4.82;;;10.20;99.90;;;;;;4931465;28;20494;-87
2022/11/16 15:45:24;;;;;;;15.27;5.15;;;10.10;99.90;;;;;;4939714;29;20089;-87
2022/11/16 15:47:55;;;;;;;16.27;5.22;;;10.10;99.90;;;;;;4931851;29;20058;-86
2022/11/16 15:50:22;;;;;;;13.27;3.90;;;10.00;99.90;;;;;;4948190;29;20849;-87
2022/11/16 15:52:54;;;;;;;14.93;4.28;;;9.90;99.90;;;;;;4947881;28;20046;-87
2022/11/16 15:55:32;;;;;;;13.25;3.80;;;9.90;99.90;;;;;;4932126;29;20655;-88
2022/11/16 15:57:58;;;;;;;7.50;1.92;;;9.80;99.90;;;;;;4959282;28;20043;-87
2022/11/16 16:00:25;;;;;;;12.13;3.60;;;9.70;99.90;;;;;;4951074;29;20046;-87
2022/11/16 16:02:51;;;;;;;12.48;4.22;;;9.60;99.90;;;;;;4944541;29;20050;-87
2022/11/16 16:05:33;;;;;;;9.90;2.58;;;9.60;99.90;;;;;;4932852;29;20062;-87
2022/11/16 16:07:58;;;;;;;7.88;2.30;;;9.50;99.90;;;;;;4952281;28;20055;-87
2022/11/16 16:10:25;;;;;;;13.20;4.03;;;9.40;99.90;;;;;;4936849;29;20122;-88
2022/11/16 16:12:53;;;;;;;13.13;4.22;;;9.40;99.90;;;;;;4951649;28;20044;-89
2022/11/16 16:15:34;;;;;;;14.63;5.15;;;9.40;99.90;;;;;;4951111;28;20043;-89
2022/11/16 16:18:02;;;;;;;12.88;3.20;;;9.40;99.90;;;;;;4935535;29;20047;-91
2022/11/16 16:20:30;;;;;;;11.95;4.60;;;9.30;99.90;;;;;;4936331;28;20440;-91
2022/11/16 16:23:07;;;;;;;12.88;4.80;;;9.30;99.90;;;;;;4939233;29;20100;-90
2022/11/16 16:25:35;;;;;;;15.07;4.25;;;9.30;99.90;;;;;;4944570;29;20109;-91
2022/11/16 16:28:00;;;;;;;8.43;2.72;;;9.30;99.90;;;;;;4936794;29;20078;-89
2022/11/16 16:30:31;;;;;;;15.55;4.90;;;9.20;99.90;;;;;;4920407;28;20318;-91
2022/11/16 16:32:57;;;;;;;9.52;3.88;;;9.20;99.90;;;;;;4937478;29;20130;-92
2022/11/16 16:35:24;;;;;;;13.63;4.50;;;9.20;99.90;;;;;;4949756;29;20126;-90
2022/11/16 16:37:55;;;;;;;8.98;2.85;;;9.10;99.90;;;;;;4923354;29;20046;-90
2022/11/16 16:40:21;;;;;;;11.02;4.75;;;9.00;99.90;;;;;;4955656;29;20063;-90
2022/11/16 16:42:47;;;;;;;7.85;2.95;;;9.00;99.90;;;;;;4959237;28;20601;-90
2022/11/16 16:45:18;;;;;;;13.60;4.90;;;9.00;99.90;;;;;;4936928;29;20043;-91
2022/11/16 16:47:43;;;;;;;11.77;4.70;;;9.00;99.90;;;;;;4937853;29;20035;-90
2022/11/16 16:50:09;;;;;;;9.48;3.05;;;9.00;99.90;;;;;;4953898;29;20083;-90
2022/11/16 16:52:35;;;;;;;11.70;4.07;;;8.90;99.90;;;;;;4933532;29;20725;-88
2022/11/16 16:55:01;;;;;;;12.32;4.43;;;9.00;99.90;;;;;;4940583;28;20059;-90
2022/11/16 16:57:26;;;;;;;12.65;5.18;;;9.00;99.90;;;;;;4935945;29;20110;-88
2022/11/16 16:59:52;;;;;;;12.63;5.03;;;9.10;99.90;;;;;;4918866;29;20051;-90
2022/11/16 17:02:17;;;;;;;11.73;3.63;;;9.20;99.90;;;;;;4935220;29;20043;-90
2022/11/16 17:04:45;;;;;;;10.38;3.38;;;9.20;99.90;;;;;;4919346;29;20134;-87
2022/11/16 17:07:11;;;;;;;10.32;4.82;;;9.20;99.90;;;;;;4960654;28;20066;-87
2022/11/16 17:09:36;;;;;;;11.18;4.82;;;9.30;99.90;;;;;;4933957;29;20419;-87
2022/11/16 17:12:03;;;;;;;12.48;5.20;;;9.30;99.90;;;;;;4922698;29;20102;-93
2022/11/16 17:14:28;;;;;;;12.10;4.28;;;9.30;99.90;;;;;;4924745;29;20074;-94
2022/11/16 17:16:54;;;;;;;13.55;5.32;;;9.20;99.90;;;;;;4925865;29;20044;-91
2022/11/16 17:19:20;;;;;;;9.77;3.45;;;9.20;99.90;;;;;;4922172;29;20121;-90
2022/11/16 17:21:46;;;;;;;9.85;3.83;;;9.10;99.90;;;;;;4952830;28;20098;-90
2022/11/16 17:24:12;;;;;;;14.55;5.70;;;9.10;99.90;;;;;;4922156;29;20075;-89
2022/11/16 17:26:38;;;;;;;13.40;5.45;;;9.10;99.90;;;;;;4922219;29;20404;-88
2022/11/16 17:29:04;;;;;;;12.50;5.82;;;9.10;99.90;;;;;;4938080;29;20443;-89
2022/11/16 17:31:30;;;;;;;16.05;8.48;;;9.10;99.90;;;;;;4938218;29;20039;-90
2022/11/16 17:33:58;;;;;;;12.65;7.22;;;9.20;99.90;;;;;;4938340;29;20043;-89
2022/11/16 17:36:24;;;;;;;12.52;7.50;;;9.20;99.90;;;;;;4935691;28;20265;-88
2022/11/16 17:38:49;;;;;;;13.65;8.23;;;9.30;99.90;;;;;;4939117;29;20131;-87
2022/11/16 17:41:22;;;;;;;14.95;7.65;;;9.30;99.90;;;;;;4954849;29;20038;-89
2022/11/16 17:43:51;;;;;;;12.63;5.55;;;9.40;99.90;;;;;;4937832;29;20058;-87
2022/11/16 17:46:18;;;;;;;14.50;8.27;;;9.30;99.90;;;;;;4934456;29;20075;-89
2022/11/16 17:48:46;;;;;;;15.52;8.63;;;9.40;99.90;;;;;;4949479;28;20046;-87
2022/11/16 17:51:13;;;;;;;14.32;7.70;;;9.30;99.90;;;;;;4919308;28;20043;-87
2022/11/16 17:53:39;;;;;;;14.45;7.80;;;9.40;99.90;;;;;;4951480;28;20035;-88
2022/11/16 17:56:06;;;;;;;12.77;7.82;;;9.50;99.90;;;;;;4970422;28;20075;-86
2022/11/16 17:58:32;;;;;;;13.98;8.35;;;9.40;99.90;;;;;;4920154;28;20035;-87
2022/11/16 18:00:58;;;;;;;12.95;8.60;;;9.40;99.90;;;;;;4935035;28;20031;-87
2022/11/16 18:03:25;;;;;;;13.35;8.63;;;9.40;99.90;;;;;;4934851;28;20101;-86
2022/11/16 18:05:51;;;;;;;13.93;6.30;;;9.30;99.90;;;;;;4935947;29;20457;-88
2022/11/16 18:08:17;;;;;;;13.60;8.90;;;9.20;99.90;;;;;;4937486;29;20078;-87
2022/11/16 18:10:43;;;;;;;14.35;9.25;;;9.20;99.90;;;;;;4952595;28;20047;-87
2022/11/16 18:13:09;;;;;;;16.05;9.32;;;9.20;99.90;;;;;;4951763;28;20035;-87
2022/11/16 18:15:35;;;;;;;13.98;8.32;;;9.20;99.90;;;;;;4952043;29;20523;-87
2022/11/16 18:18:03;;;;;;;13.40;8.48;;;9.10;99.90;;;;;;4934785;28;20043;-87
2022/11/16 18:20:33;;;;;;;15.23;9.65;;;9.10;99.90;;;;;;4946837;28;20043;-87
2022/11/16 18:22:59;;;;;;;12.02;6.22;;;9.10;99.90;;;;;;4969307;28;20043;-86
2022/11/16 18:25:25;;;;;;;15.90;8.45;;;9.10;99.90;;;;;;4949640;28;20062;-87
2022/11/16 18:27:54;;;;;;;12.15;8.10;;;9.10;99.90;;;;;;4957138;28;20509;-85
2022/11/16 18:30:21;;;;;;;13.85;8.77;;;9.10;99.90;;;;;;4936266;29;20043;-87
2022/11/16 18:32:48;;;;;;;15.77;8.98;;;9.10;99.90;;;;;;4920079;29;20043;-86
2022/11/16 18:35:14;;;;;;;14.55;9.85;;;9.00;99.90;;;;;;4954828;29;20043;-86
2022/11/16 18:37:40;;;;;;;15.10;7.90;;;9.00;99.90;;;;;;4930083;29;20043;-87
2022/11/16 18:40:06;;;;;;;17.58;12.45;;;8.90;99.90;;;;;;4971498;28;20050;-85
2022/11/16 18:42:32;;;;;;;18.27;8.77;;;8.90;99.90;;;;;;4958123;28;20047;-86
2022/11/16 18:44:57;;;;;;;19.48;14.10;;;8.80;99.90;;;;;;4921311;29;20370;-86
2022/11/16 18:47:23;;;;;;;22.02;15.15;;;8.90;99.90;;;;;;4952021;28;20039;-87
2022/11/16 18:49:49;;;;;;;20.23;11.82;;;8.90;99.90;;;;;;4951307;28;20455;-85
2022/11/16 18:52:14;;;;;;;22.80;18.10;;;8.90;99.90;;;;;;4937191;29;20204;-87
2022/11/16 18:54:40;;;;;;;24.20;19.17;;;8.90;99.90;;;;;;4935986;29;20075;-88
2022/11/16 18:57:06;;;;;;;25.38;21.58;;;8.90;99.90;;;;;;4936643;29;20035;-86
2022/11/16 18:59:31;;;;;;;27.27;22.38;;;8.90;99.90;;;;;;4937292;28;20386;-86
2022/11/16 19:01:57;;;;;;;27.85;16.17;;;8.90;99.90;;;;;;4918933;29;20042;-85
2022/11/16 19:04:23;;;;;;;25.73;16.13;;;8.80;99.90;;;;;;4933049;29;20042;-89
2022/11/16 19:06:49;;;;;;;25.80;15.88;;;8.80;99.90;;;;;;4931818;29;20067;-86
2022/11/16 19:09:14;;;;;;;32.80;27.60;;;8.80;99.90;;;;;;4947857;29;20514;-87
2022/11/16 19:11:40;;;;;;;29.55;17.35;;;8.80;99.90;;;;;;4932372;29;20061;-86
2022/11/16 19:14:08;;;;;;;30.95;17.60;;;8.80;99.90;;;;;;4932262;29;20043;-88
2022/11/16 19:16:34;;;;;;;40.22;32.28;;;8.90;99.90;;;;;;4931950;28;20487;-88
2022/11/16 19:19:00;;;;;;;38.50;32.42;;;8.80;99.90;;;;;;4926585;28;20147;-87
2022/11/16 19:21:26;;;;;;;43.70;36.47;;;8.80;99.90;;;;;;4933065;29;20158;-88
2022/11/16 19:23:55;;;;;;;42.60;35.58;;;8.90;99.90;;;;;;4932210;29;20058;-87
2022/11/16 19:26:23;;;;;;;48.50;37.97;;;8.80;99.90;;;;;;4937118;28;20039;-86
2022/11/16 19:28:50;;;;;;;46.60;37.10;;;8.90;99.90;;;;;;4947481;29;20054;-87
2022/11/16 19:31:19;;;;;;;37.80;20.38;;;8.90;99.90;;;;;;4930571;28;20544;-87
2022/11/16 19:33:45;;;;;;;38.75;21.52;;;8.80;99.90;;;;;;4930407;29;20046;-88
2022/11/16 19:36:16;;;;;;;41.78;26.58;;;8.80;99.90;;;;;;4945806;29;20046;-88
2022/11/16 19:38:42;;;;;;;44.13;26.45;;;8.80;99.90;;;;;;4952991;28;20175;-90
2022/11/16 19:41:10;;;;;;;39.17;24.20;;;8.80;99.90;;;;;;4935734;28;20429;-90
2022/11/16 19:43:35;;;;;;;55.20;43.08;;;8.80;99.90;;;;;;4916522;29;20044;-89
2022/11/16 19:46:03;;;;;;;54.17;42.03;;;8.80;99.90;;;;;;4936282;29;20050;-86
2022/11/16 19:48:31;;;;;;;50.58;41.10;;;8.90;99.90;;;;;;4950800;29;20421;-87
2022/11/16 19:51:01;;;;;;;37.42;23.02;;;8.80;99.90;;;;;;4948107;28;20050;-85
2022/11/16 19:53:27;;;;;;;52.15;41.42;;;8.80;99.90;;;;;;4952865;28;20480;-89
2022/11/16 19:55:53;;;;;;;36.58;20.92;;;8.80;99.90;;;;;;4916047;29;20122;-86
2022/11/16 19:58:22;;;;;;;41.15;22.50;;;8.70;99.90;;;;;;4952155;28;20054;-94
2022/11/16 20:00:48;;;;;;;40.03;23.35;;;8.70;99.90;;;;;;4930897;29;20039;-86
2022/11/16 20:03:13;;;;;;;49.70;38.70;;;8.70;99.90;;;;;;4922218;29;20102;-87
2022/11/16 20:05:39;;;;;;;49.45;38.83;;;8.60;99.90;;;;;;4939694;29;20054;-86
2022/11/16 20:08:05;;;;;;;34.38;20.65;;;8.70;99.90;;;;;;4932482;29;20063;-87
2022/11/16 20:10:31;;;;;;;35.25;20.83;;;8.60;99.90;;;;;;4949203;28;20090;-88
2022/11/16 20:12:57;;;;;;;33.53;18.02;;;8.50;99.90;;;;;;4932014;29;20110;-89
2022/11/16 20:15:24;;;;;;;38.40;21.67;;;8.50;99.90;;;;;;4930415;29;20127;-87
2022/11/16 20:17:52;;;;;;;33.97;20.05;;;8.40;99.90;;;;;;4952968;28;20043;-86
2022/11/16 20:20:18;;;;;;;45.72;36.10;;;8.40;99.90;;;;;;4931356;29;20051;-88
2022/11/16 20:22:46;;;;;;;46.50;36.45;;;8.40;99.90;;;;;;4948915;29;20039;-87
2022/11/16 20:25:12;;;;;;;46.42;36.00;;;8.40;99.90;;;;;;4930253;29;20047;-86
2022/11/16 20:27:37;;;;;;;36.55;18.20;;;8.40;99.90;;;;;;4932057;29;20047;-88
2022/11/16 20:30:03;;;;;;;51.67;38.47;;;8.30;99.90;;;;;;4916019;29;20477;-87
2022/11/16 20:32:29;;;;;;;37.05;19.88;;;8.30;99.90;;;;;;4915806;29;20078;-87
2022/11/16 20:34:55;;;;;;;31.58;17.27;;;8.30;99.90;;;;;;4930522;28;20071;-86
2022/11/16 20:37:21;;;;;;;36.13;16.63;;;8.20;99.90;;;;;;4955555;28;20043;-92
2022/11/16 20:39:51;;;;;;;48.28;37.45;;;8.20;99.90;;;;;;4933097;29;20496;-86
2022/11/16 20:42:17;;;;;;;35.75;18.77;;;8.30;99.90;;;;;;4947636;28;20134;-87
2022/11/16 20:44:43;;;;;;;39.65;17.10;;;8.30;99.90;;;;;;4961692;28;20122;-87
2022/11/16 20:47:09;;;;;;;34.83;18.65;;;8.20;99.90;;;;;;4915591;28;20474;-93
2022/11/16 20:49:35;;;;;;;42.90;34.88;;;8.20;99.90;;;;;;4949725;28;20059;-86
2022/11/16 20:52:01;;;;;;;41.90;33.88;;;8.20;99.90;;;;;;4936924;29;20119;-87
2022/11/16 20:54:30;;;;;;;42.30;33.42;;;8.30;99.90;;;;;;4951811;28;20494;-86
2022/11/16 20:56:55;;;;;;;42.10;33.58;;;8.40;99.90;;;;;;4933426;29;20047;-87
2022/11/16 20:59:21;;;;;;;41.63;32.28;;;8.40;99.90;;;;;;4936691;29;20105;-87
2022/11/16 21:01:51;;;;;;;41.60;33.05;;;8.40;99.90;;;;;;4936928;29;20492;-87
2022/11/16 21:04:16;;;;;;;30.48;18.27;;;8.50;99.90;;;;;;4933802;29;20133;-87
2022/11/16 21:06:42;;;;;;;34.22;17.77;;;8.40;99.90;;;;;;4950471;29;20134;-88
2022/11/16 21:09:10;;;;;;;32.00;18.30;;;8.40;99.90;;;;;;4951827;28;20072;-85
2022/11/16 21:14:21;;;;;;;33.60;19.35;;;8.50;99.90;;;;;;4953142;29;20055;-86
2022/11/16 21:16:47;;;;;;;39.63;31.67;;;8.50;99.90;;;;;;4936823;28;20200;-89
2022/11/16 21:19:13;;;;;;;29.27;15.35;;;8.50;99.90;;;;;;4933285;29;20043;-87
2022/11/16 21:21:39;;;;;;;31.52;17.70;;;8.50;99.90;;;;;;4914554;29;20139;-87
2022/11/16 21:24:08;;;;;;;30.50;18.30;;;8.50;99.90;;;;;;4917948;29;20119;-88
2022/11/16 21:26:35;;;;;;;40.15;30.88;;;8.50;99.90;;;;;;4959464;28;20043;-86
2022/11/16 21:29:01;;;;;;;30.10;18.15;;;8.50;99.90;;;;;;4932538;29;20400;-88
2022/11/16 21:31:29;;;;;;;36.25;30.63;;;8.50;99.90;;;;;;4964346;28;20039;-87
2022/11/16 21:33:55;;;;;;;38.28;30.20;;;8.60;99.90;;;;;;4918845;29;20043;-92
2022/11/16 21:36:24;;;;;;;31.23;17.90;;;8.60;99.90;;;;;;4918948;29;20051;-90
2022/11/16 21:38:50;;;;;;;37.05;30.40;;;8.60;99.90;;;;;;4917171;29;20420;-86
2022/11/16 21:41:18;;;;;;;30.45;17.48;;;8.60;99.90;;;;;;4954024;28;20051;-87
2022/11/16 21:43:43;;;;;;;27.35;14.13;;;8.50;99.90;;;;;;4955028;28;20150;-86
2022/11/16 21:46:12;;;;;;;35.75;29.52;;;8.50;99.90;;;;;;4934986;29;20106;-88
2022/11/16 21:48:38;;;;;;;28.60;18.13;;;8.50;99.90;;;;;;4953213;28;20043;-88
2022/11/16 21:51:06;;;;;;;32.88;27.38;;;8.50;99.90;;;;;;4948180;29;20046;-86
2022/11/16 21:53:32;;;;;;;34.65;28.38;;;8.50;99.90;;;;;;4950407;28;20051;-92
2022/11/16 21:55:58;;;;;;;37.58;29.95;;;8.50;99.90;;;;;;4917837;29;20039;-86
2022/11/16 21:58:24;;;;;;;27.15;14.77;;;8.50;99.90;;;;;;4917522;29;20039;-86
2022/11/16 22:00:55;;;;;;;27.17;16.13;;;8.50;99.90;;;;;;4947631;29;20449;-88
2022/11/16 22:03:21;;;;;;;28.35;17.80;;;8.50;99.90;;;;;;4952207;28;20055;-85
2022/11/16 22:08:36;;;;;;;29.00;17.63;;;8.60;99.90;;;;;;4942939;29;20047;-87
2022/11/16 22:11:02;;;;;;;30.88;17.38;;;8.60;99.90;;;;;;4937621;29;20117;-86
2022/11/16 22:13:27;;;;;;;27.98;13.93;;;8.50;99.90;;;;;;4958588;28;20035;-86
2022/11/16 22:15:53;;;;;;;34.67;27.75;;;8.50;99.90;;;;;;4951177;29;20518;-90
2022/11/16 22:18:19;;;;;;;29.70;17.02;;;8.60;99.90;;;;;;4933612;29;20047;-89
2022/11/16 22:20:48;;;;;;;35.47;28.88;;;8.60;99.90;;;;;;4950987;29;20396;-88
2022/11/16 22:23:14;;;;;;;33.65;27.60;;;8.60;99.90;;;;;;4947020;28;20460;-88
2022/11/16 22:25:40;;;;;;;33.92;27.65;;;8.60;99.90;;;;;;4949688;28;20039;-88
2022/11/16 22:28:06;;;;;;;34.95;28.73;;;8.60;99.90;;;;;;4948842;28;20042;-88
2022/11/16 22:30:32;;;;;;;32.17;17.48;;;8.60;99.90;;;;;;4918250;29;20111;-86
2022/11/16 22:32:57;;;;;;;34.15;27.38;;;8.60;99.90;;;;;;4948456;28;20122;-90
2022/11/16 22:35:23;;;;;;;33.17;27.00;;;8.60;99.90;;;;;;4946267;28;20510;-87
2022/11/16 22:37:49;;;;;;;34.95;27.50;;;8.60;99.90;;;;;;4949755;28;20035;-86
2022/11/16 22:40:14;;;;;;;25.55;12.27;;;8.60;99.90;;;;;;4948828;28;20050;-88
2022/11/16 22:42:40;;;;;;;32.13;26.92;;;8.60;99.90;;;;;;4938466;29;20050;-88
2022/11/16 22:45:06;;;;;;;26.45;13.63;;;8.60;99.90;;;;;;4950357;29;20066;-85
2022/11/16 22:47:34;;;;;;;25.83;14.98;;;8.60;99.90;;;;;;4932738;29;20046;-87
2022/11/16 22:50:01;;;;;;;26.48;14.40;;;8.60;99.90;;;;;;4950302;28;20051;-88
2022/11/16 22:52:26;;;;;;;25.48;14.65;;;8.60;99.90;;;;;;4961643;28;20102;-87
2022/11/16 22:54:52;;;;;;;26.92;15.43;;;8.60;99.90;;;;;;4930509;29;20047;-86
2022/11/16 22:57:17;;;;;;;31.70;26.25;;;8.60;99.90;;;;;;4946785;28;20044;-85
2022/11/16 22:59:43;;;;;;;31.00;25.92;;;8.60;99.90;;;;;;4964359;28;20064;-88
2022/11/16 23:02:08;;;;;;;31.63;26.17;;;8.60;99.90;;;;;;4950033;28;20173;-89
2022/11/16 23:04:34;;;;;;;34.30;25.95;;;8.60;99.90;;;;;;4955544;28;20047;-85
2022/11/16 23:07:00;;;;;;;31.42;25.73;;;8.70;99.90;;;;;;4919797;29;20056;-86
2022/11/16 23:09:25;;;;;;;27.77;15.65;;;8.70;99.90;;;;;;4910028;29;20044;-88
2022/11/16 23:17:19;;;;;;;24.77;15.77;;;8.60;99.90;;;;;;4921973;29;20044;-89
2022/11/16 23:28:14;;;;;;;25.95;15.60;;;8.60;99.90;;;;;;4911456;29;20054;-89
2022/11/16 23:30:40;;;;;;;32.10;25.55;;;8.60;99.90;;;;;;4907838;29;20066;-88
2022/11/16 23:33:05;;;;;;;30.10;25.38;;;8.70;99.90;;;;;;4910794;29;20044;-88
2022/11/16 23:35:31;;;;;;;32.08;25.48;;;8.70;99.90;;;;;;4928408;29;20126;-87
2022/11/16 23:37:59;;;;;;;32.38;25.50;;;8.70;99.90;;;;;;4910422;29;20051;-94
2022/11/16 23:40:27;;;;;;;32.40;25.38;;;8.70;99.90;;;;;;4912003;29;20071;-88
2022/11/16 23:45:38;;;;;;;27.88;14.35;;;8.80;99.90;;;;;;4920442;29;20437;-88
2022/11/16 23:48:06;;;;;;;27.30;15.35;;;8.70;99.90;;;;;;4910590;29;20370;-87
2022/11/16 23:50:31;;;;;;;33.25;26.38;;;8.70;99.90;;;;;;4923791;29;20063;-86
2022/11/16 23:52:57;;;;;;;28.30;15.75;;;8.70;99.90;;;;;;4909090;29;20401;-86
2022/11/16 23:55:23;;;;;;;26.85;13.52;;;8.70;99.90;;;;;;4906477;29;20039;-88
2022/11/16 23:57:49;;;;;;;33.05;25.17;;;8.70;99.90;;;;;;4907308;29;20131;-87
